KBLU/BLU METAR and TAF weather

Enter ICAO airport designator
Station Type Date Time Source
KBLU METAR 2019/08/21 21:52 UTC NOAA

KBLU 212152Z AUTO 26006KT 10SM CLR 23/06 A3017 RMK AO2 SLP120 T02330056


Station Type Date Time Source
KBLU Decoded METAR 2019/08/21 21:52 UTC NOAA

Station name not available
Aug 21, 2019 - 05:52 PM EDT / 2019.08.21 2152 UTC
Wind: from the W (260 degrees) at 7 MPH (6 KT):0
Visibility: 10 mile(s):0
Sky conditions: clear
Temperature: 73.9 F (23.3 C)
Dew Point: 42.1 F (5.6 C)
Relative Humidity: 31%
Pressure (altimeter): 30.17 in. Hg (1021 hPa)
ob: KBLU 212152Z AUTO 26006KT 10SM CLR 23/06 A3017 RMK AO2 SLP120 T02330056
cycle: 22

Station Type Date Time Source
KBLU TAF UTC NOAA

Error!

Example: see airport list